createdAt,value
2018-08-09T00:00:09.836Z,52.24
2018-08-09T00:02:37.990Z,51.87
2018-08-09T00:05:05.693Z,51.50
2018-08-09T00:07:33.835Z,51.30
2018-08-09T00:10:01.536Z,52.11
2018-08-09T00:12:29.381Z,52.16
2018-08-09T00:14:57.017Z,50.87
2018-08-09T00:17:24.668Z,50.88
2018-08-09T00:19:52.302Z,51.88
2018-08-09T00:22:20.046Z,51.94
2018-08-09T00:24:47.716Z,52.12
2018-08-09T00:27:15.709Z,51.15
2018-08-09T00:29:43.684Z,52.14
2018-08-09T00:32:12.158Z,51.58
2018-08-09T00:34:39.871Z,51.76
2018-08-09T00:37:07.763Z,52.04
2018-08-09T00:39:35.398Z,51.47
2018-08-09T00:42:03.258Z,52.43
2018-08-09T00:44:31.412Z,53.05
2018-08-09T00:47:00.387Z,52.82
2018-08-09T00:49:28.051Z,53.56
2018-08-09T00:51:55.748Z,53.75
2018-08-09T00:54:23.479Z,53.47
2018-08-09T00:56:51.342Z,52.89
2018-08-09T00:59:18.997Z,52.84
2018-08-09T01:01:46.663Z,53.07
2018-08-09T01:04:14.375Z,52.46
2018-08-09T01:06:42.090Z,52.97
2018-08-09T01:09:13.793Z,52.99
2018-08-09T01:11:41.499Z,52.44
2018-08-09T01:14:09.189Z,53.50
2018-08-09T01:16:36.851Z,52.78
2018-08-09T01:19:04.609Z,53.43
2018-08-09T01:21:32.277Z,54.32
2018-08-09T01:24:00.709Z,54.07
2018-08-09T01:26:28.484Z,54.46
2018-08-09T01:28:56.152Z,54.43
2018-08-09T01:31:38.883Z,54.36
2018-08-09T01:34:09.454Z,54.19
2018-08-09T01:36:37.681Z,54.37
2018-08-09T01:39:08.540Z,55.03
2018-08-09T01:41:36.561Z,54.19
2018-08-09T01:44:05.294Z,53.78
2018-08-09T01:46:33.044Z,54.59
2018-08-09T01:49:01.423Z,54.80
2018-08-09T01:51:30.130Z,54.01
2018-08-09T01:53:57.855Z,53.99
2018-08-09T01:56:25.521Z,53.25
2018-08-09T01:58:53.780Z,53.18
2018-08-09T02:01:21.761Z,53.94
2018-08-09T02:03:49.421Z,53.51
2018-08-09T02:06:17.868Z,52.91
2018-08-09T02:08:46.260Z,53.49
2018-08-09T02:11:14.174Z,52.37
2018-08-09T02:13:42.421Z,52.91
2018-08-09T02:16:10.665Z,53.22
2018-08-09T02:18:39.128Z,53.04
2018-08-09T02:21:08.053Z,54.05
2018-08-09T02:23:35.727Z,54.57
2018-08-09T02:26:03.800Z,53.94
2018-08-09T02:28:31.484Z,54.06
2018-08-09T02:30:59.884Z,54.37
2018-08-09T02:33:27.743Z,53.69
2018-08-09T02:35:56.002Z,54.39
2018-08-09T02:38:24.006Z,54.80
2018-08-09T02:40:51.884Z,54.87
2018-08-09T02:43:19.880Z,55.26
2018-08-09T02:45:47.775Z,54.96
2018-08-09T02:48:15.395Z,54.33
2018-08-09T02:50:43.069Z,54.21
2018-08-09T02:53:11.033Z,54.14
2018-08-09T02:55:38.710Z,54.21
2018-08-09T02:58:06.721Z,53.46
2018-08-09T03:00:34.438Z,53.44
2018-08-09T03:03:02.586Z,53.23
2018-08-09T03:05:30.474Z,53.18
2018-08-09T03:07:58.135Z,52.73
2018-08-09T03:10:25.820Z,52.17
2018-08-09T03:12:53.444Z,52.90
2018-08-09T03:15:21.100Z,53.27
2018-08-09T03:17:49.028Z,54.18
2018-08-09T03:20:16.681Z,53.86
2018-08-09T03:22:44.322Z,53.93
2018-08-09T03:25:12.370Z,54.11
2018-08-09T03:27:40.516Z,54.38
2018-08-09T03:30:08.390Z,54.61
2018-08-09T03:32:36.112Z,54.91
2018-08-09T03:35:03.881Z,55.69
2018-08-09T03:37:31.550Z,55.14
2018-08-09T03:39:59.569Z,56.11
2018-08-09T03:42:27.201Z,55.20
2018-08-09T03:44:54.923Z,55.37
2018-08-09T03:47:24.211Z,56.27
2018-08-09T03:49:51.883Z,55.65
2018-08-09T03:52:19.541Z,56.11
2018-08-09T03:54:47.406Z,56.56
2018-08-09T03:57:15.997Z,55.91
2018-08-09T03:59:43.806Z,56.05
2018-08-09T04:04:40.638Z,56.92
2018-08-09T04:07:08.647Z,56.84
2018-08-09T04:09:36.574Z,56.71
2018-08-09T04:12:04.287Z,57.41
2018-08-09T04:14:32.354Z,57.53
2018-08-09T04:17:03.969Z,57.06
2018-08-09T04:19:31.622Z,56.62
2018-08-09T04:21:59.550Z,57.23
2018-08-09T04:24:27.550Z,56.77
2018-08-09T04:26:55.533Z,56.97
2018-08-09T04:29:23.199Z,57.34
2018-08-09T04:31:50.853Z,57.14
2018-08-09T04:34:18.493Z,56.96
2018-08-09T04:36:46.129Z,57.16
2018-08-09T04:39:13.813Z,56.76
2018-08-09T04:41:41.447Z,56.41
2018-08-09T04:44:09.120Z,56.57
2018-08-09T04:46:37.045Z,55.76
2018-08-09T04:49:05.922Z,56.01
2018-08-09T04:51:33.606Z,56.74
2018-08-09T04:54:01.673Z,56.22
2018-08-09T04:56:29.619Z,55.85
2018-08-09T04:58:57.287Z,56.22
2018-08-09T05:01:24.957Z,56.27
2018-08-09T05:03:52.876Z,56.65
2018-08-09T05:06:20.600Z,55.55
2018-08-09T05:08:48.316Z,55.64
2018-08-09T05:11:16.257Z,56.27
2018-08-09T05:13:44.463Z,55.28
2018-08-09T05:16:12.174Z,55.58
2018-08-09T05:18:39.840Z,54.99
2018-08-09T05:21:08.077Z,55.18
2018-08-09T05:23:36.085Z,55.17
2018-08-09T05:26:03.965Z,56.21
2018-08-09T05:28:32.080Z,56.40
2018-08-09T05:31:00.174Z,56.54
2018-08-09T05:33:28.118Z,55.89
2018-08-09T05:35:56.485Z,55.40
2018-08-09T05:38:24.232Z,55.04
2018-08-09T05:40:51.835Z,55.46
2018-08-09T05:43:19.477Z,56.21
2018-08-09T05:45:47.158Z,55.13
2018-08-09T05:48:14.780Z,55.38
2018-08-09T05:50:42.830Z,56.21
2018-08-09T05:53:10.484Z,56.22
2018-08-09T05:55:38.223Z,55.62
2018-08-09T05:58:05.953Z,56.29
2018-08-09T06:00:33.709Z,56.07
2018-08-09T06:03:01.651Z,55.77
2018-08-09T06:05:29.348Z,56.18
2018-08-09T06:07:57.087Z,56.03
2018-08-09T06:10:24.758Z,56.67
2018-08-09T06:12:52.408Z,56.28
2018-08-09T06:15:20.040Z,56.50
2018-08-09T06:17:47.671Z,55.77
2018-08-09T06:20:15.369Z,55.42
2018-08-09T06:22:43.673Z,55.01
2018-08-09T06:25:11.734Z,54.91
2018-08-09T06:27:39.629Z,55.16
2018-08-09T06:30:08.886Z,54.66
2018-08-09T06:32:36.924Z,54.74
2018-08-09T06:35:06.224Z,53.65
2018-08-09T06:37:34.013Z,54.06
2018-08-09T06:40:01.679Z,54.60
2018-08-09T06:42:29.331Z,54.24
2018-08-09T06:44:56.960Z,53.66
2018-08-09T06:47:25.278Z,53.17
2018-08-09T06:49:52.905Z,53.02
2018-08-09T06:52:20.545Z,52.89
2018-08-09T06:54:48.608Z,52.67
2018-08-09T06:57:16.591Z,52.61
2018-08-09T06:59:44.983Z,52.86
2018-08-09T07:02:12.721Z,53.15
2018-08-09T07:04:40.726Z,53.50
2018-08-09T07:07:08.341Z,53.48
2018-08-09T07:09:36.221Z,53.62
2018-08-09T07:12:03.889Z,52.66
2018-08-09T07:14:31.546Z,53.41
2018-08-09T07:16:59.259Z,53.95
2018-08-09T07:19:27.204Z,53.74
2018-08-09T07:21:55.824Z,52.46
2018-08-09T07:24:23.517Z,52.84
2018-08-09T07:26:51.529Z,52.47
2018-08-09T07:29:19.140Z,52.07
2018-08-09T07:31:47.034Z,51.91
2018-08-09T07:34:14.645Z,52.35
2018-08-09T07:36:42.637Z,52.28
2018-08-09T07:39:10.280Z,51.99
2018-08-09T07:41:39.343Z,51.83
2018-08-09T07:44:07.433Z,51.90
2018-08-09T07:46:35.262Z,51.15
2018-08-09T07:49:03.620Z,51.53
2018-08-09T07:51:31.754Z,51.43
2018-08-09T07:53:59.707Z,51.91
2018-08-09T07:56:27.737Z,51.69
2018-08-09T07:58:55.425Z,51.03
2018-08-09T08:01:23.696Z,51.80
2018-08-09T08:03:52.283Z,51.01
2018-08-09T08:06:20.269Z,51.82
2018-08-09T08:08:47.971Z,51.22
2018-08-09T08:11:15.633Z,51.66
2018-08-09T08:13:43.852Z,52.15
2018-08-09T08:16:11.633Z,52.05
2018-08-09T08:18:39.598Z,52.18
2018-08-09T08:21:07.686Z,51.89
2018-08-09T08:23:35.313Z,51.99
2018-08-09T08:26:02.929Z,52.11
2018-08-09T08:28:30.844Z,51.63
2018-08-09T08:30:58.833Z,52.04
2018-08-09T08:33:26.788Z,51.45
2018-08-09T08:35:54.726Z,51.89
2018-08-09T08:38:22.439Z,51.92
2018-08-09T08:40:50.348Z,51.64
2018-08-09T08:43:18.270Z,51.39
2018-08-09T08:45:45.905Z,51.60
2018-08-09T08:48:13.924Z,50.91
2018-08-09T08:50:41.912Z,51.31
2018-08-09T08:53:09.614Z,50.12
2018-08-09T08:55:37.207Z,50.92
2018-08-09T08:58:04.908Z,51.06
2018-08-09T09:00:33.085Z,50.88
2018-08-09T09:03:00.747Z,50.80
2018-08-09T09:05:28.368Z,50.60
2018-08-09T09:07:56.324Z,50.91
2018-08-09T09:10:23.974Z,50.57
2018-08-09T09:12:51.904Z,50.68
2018-08-09T09:15:19.543Z,50.94
2018-08-09T09:17:47.177Z,50.65
2018-08-09T09:20:16.029Z,49.98
2018-08-09T09:22:44.208Z,50.51
2018-08-09T09:25:12.038Z,49.77
2018-08-09T09:27:39.686Z,49.53
2018-08-09T09:30:09.784Z,50.69
2018-08-09T09:32:37.655Z,49.82
2018-08-09T09:35:05.601Z,50.03
2018-08-09T09:37:33.249Z,49.72
2018-08-09T09:40:01.054Z,49.15
2018-08-09T09:42:28.725Z,49.34
2018-08-09T09:44:56.408Z,48.85
2018-08-09T09:47:24.402Z,48.97
2018-08-09T09:49:52.303Z,49.34
2018-08-09T09:52:20.250Z,49.40
2018-08-09T09:54:48.936Z,50.26
2018-08-09T09:57:21.410Z,49.38
2018-08-09T09:59:49.183Z,49.70
2018-08-09T10:02:16.802Z,49.69
2018-08-09T10:04:44.566Z,49.21
2018-08-09T10:07:12.278Z,49.88
2018-08-09T10:09:39.896Z,48.71
2018-08-09T10:12:16.781Z,48.86
2018-08-09T10:14:44.708Z,48.27
2018-08-09T10:17:12.662Z,48.71
2018-08-09T10:19:40.638Z,47.88
2018-08-09T10:22:08.391Z,48.17
2018-08-09T10:24:36.504Z,48.14
2018-08-09T10:27:04.465Z,48.57
2018-08-09T10:29:32.102Z,47.32
2018-08-09T10:31:59.958Z,47.98
2018-08-09T10:34:27.904Z,48.71
2018-08-09T10:36:55.559Z,48.07
2018-08-09T10:39:23.216Z,48.18
2018-08-09T10:41:51.284Z,47.09
2018-08-09T10:44:19.286Z,48.40
2018-08-09T10:46:47.226Z,47.97
2018-08-09T10:49:15.302Z,47.70
2018-08-09T10:51:43.286Z,48.21
2018-08-09T10:54:10.914Z,47.95
2018-08-09T10:56:38.608Z,48.11
2018-08-09T10:59:06.203Z,47.80
2018-08-09T11:01:34.039Z,47.20
2018-08-09T11:04:02.025Z,47.24
2018-08-09T11:06:29.686Z,47.33
2018-08-09T11:08:57.358Z,47.16
2018-08-09T11:11:25.010Z,47.08
2018-08-09T11:13:52.681Z,46.94
2018-08-09T11:16:20.933Z,47.93
2018-08-09T11:18:48.555Z,47.93
2018-08-09T11:21:16.528Z,47.46
2018-08-09T11:23:44.723Z,47.23
2018-08-09T11:26:12.352Z,47.31
2018-08-09T11:28:39.988Z,48.31
2018-08-09T11:31:07.663Z,48.61
2018-08-09T11:33:35.634Z,49.30
2018-08-09T11:36:03.553Z,49.37
2018-08-09T11:38:31.234Z,48.86
2018-08-09T11:40:59.361Z,49.75
2018-08-09T11:43:27.357Z,49.34
2018-08-09T11:45:55.052Z,50.32
2018-08-09T11:48:22.845Z,50.13
2018-08-09T11:50:50.874Z,49.52
2018-08-09T11:53:18.510Z,49.85
2018-08-09T11:55:46.374Z,49.87
2018-08-09T11:58:14.033Z,50.16
2018-08-09T12:00:41.790Z,50.04
2018-08-09T12:03:09.512Z,51.09
2018-08-09T12:05:37.236Z,51.41
2018-08-09T12:08:05.191Z,51.00
2018-08-09T12:10:32.829Z,51.22
2018-08-09T12:13:00.475Z,51.63
2018-08-09T12:15:28.093Z,50.92
2018-08-09T12:17:55.743Z,50.88
2018-08-09T12:20:23.741Z,51.19
2018-08-09T12:22:51.699Z,51.50
2018-08-09T12:25:19.417Z,51.70
2018-08-09T12:27:47.377Z,51.55
2018-08-09T12:30:15.556Z,50.85
2018-08-09T12:32:43.967Z,50.60
2018-08-09T12:35:12.741Z,51.11
2018-08-09T12:37:41.401Z,50.63
2018-08-09T12:40:10.031Z,51.80
2018-08-09T12:42:38.143Z,51.63
2018-08-09T12:45:07.402Z,51.64
2018-08-09T12:47:36.187Z,53.21
2018-08-09T12:50:05.280Z,52.63
2018-08-09T12:52:33.582Z,52.55
2018-08-09T12:55:01.696Z,52.96
2018-08-09T12:57:29.411Z,52.60
2018-08-09T12:59:57.090Z,53.48
2018-08-09T13:02:24.854Z,53.45
2018-08-09T13:04:52.463Z,53.99
2018-08-09T13:07:20.792Z,53.87
2018-08-09T13:09:48.817Z,54.18
2018-08-09T13:12:16.796Z,54.90
2018-08-09T13:14:44.610Z,54.20
2018-08-09T13:17:12.247Z,54.58
2018-08-09T13:19:39.969Z,54.75
2018-08-09T13:22:07.828Z,55.64
2018-08-09T13:24:35.534Z,55.46
2018-08-09T13:27:03.446Z,55.06
2018-08-09T13:29:31.085Z,55.30
2018-08-09T13:31:58.802Z,54.64
2018-08-09T13:34:26.478Z,54.36
2018-08-09T13:36:54.138Z,54.33
2018-08-09T13:39:22.262Z,53.53
2018-08-09T13:41:49.846Z,53.35
2018-08-09T13:44:17.483Z,53.16
2018-08-09T13:46:45.229Z,53.44
2018-08-09T13:49:12.823Z,52.94
2018-08-09T13:51:40.511Z,52.84
2018-08-09T13:54:08.530Z,52.02
2018-08-09T13:56:36.120Z,51.61
2018-08-09T13:59:03.882Z,52.44
2018-08-09T14:01:31.889Z,52.17
2018-08-09T14:03:59.576Z,51.97
2018-08-09T14:06:27.575Z,51.72
2018-08-09T14:08:55.282Z,51.70
2018-08-09T14:11:22.954Z,52.09
2018-08-09T14:13:50.595Z,51.54
2018-08-09T14:16:19.213Z,51.06
2018-08-09T14:18:46.865Z,51.50
2018-08-09T14:21:14.519Z,51.30
2018-08-09T14:23:42.145Z,50.72
2018-08-09T14:26:09.786Z,51.06
2018-08-09T14:28:37.474Z,51.02
2018-08-09T14:31:05.094Z,49.78
2018-08-09T14:33:33.148Z,48.25
2018-08-09T14:36:01.163Z,49.51
2018-08-09T14:38:28.824Z,49.30
2018-08-09T14:40:56.816Z,47.91
2018-08-09T14:43:24.819Z,46.70
2018-08-09T14:45:52.805Z,47.29
2018-08-09T14:48:20.445Z,49.66
2018-08-09T14:50:48.076Z,48.92
2018-08-09T14:53:16.041Z,45.69
2018-08-09T14:55:44.170Z,43.99
2018-08-09T14:58:12.505Z,43.51
2018-08-09T15:00:40.205Z,43.88
2018-08-09T15:03:08.274Z,45.67
2018-08-09T15:05:35.948Z,47.76
2018-08-09T15:08:03.597Z,48.94
2018-08-09T15:10:31.573Z,48.35
2018-08-09T15:12:59.230Z,50.09
2018-08-09T15:15:27.207Z,50.85
2018-08-09T15:17:55.122Z,50.31
2018-08-09T15:20:23.006Z,50.45
2018-08-09T15:22:50.686Z,51.06
2018-08-09T15:25:18.317Z,50.65
2018-08-09T15:27:46.280Z,50.67
2018-08-09T15:30:17.556Z,50.79
2018-08-09T15:32:45.938Z,50.59
2018-08-09T15:35:13.813Z,51.88
2018-08-09T15:37:42.168Z,52.05
2018-08-09T15:40:12.290Z,52.03
2018-08-09T15:42:40.335Z,52.35
2018-08-09T15:45:12.688Z,52.84
2018-08-09T15:47:41.232Z,51.69
2018-08-09T15:50:11.785Z,52.17
2018-08-09T15:52:39.532Z,52.02
2018-08-09T15:55:08.365Z,51.86
2018-08-09T15:57:36.045Z,51.91
2018-08-09T16:00:09.394Z,51.52
2018-08-09T16:02:37.122Z,51.63
2018-08-09T16:05:05.567Z,51.71
2018-08-09T16:07:33.714Z,51.73
2018-08-09T16:10:01.711Z,51.32
2018-08-09T16:12:29.685Z,51.49
2018-08-09T16:14:57.356Z,51.18
2018-08-09T16:17:25.021Z,51.34
2018-08-09T16:19:52.712Z,51.34
2018-08-09T16:22:20.382Z,50.30
2018-08-09T16:24:48.439Z,50.70
2018-08-09T16:27:16.045Z,50.44
2018-08-09T16:29:43.689Z,51.39
2018-08-09T16:32:11.455Z,50.97
2018-08-09T16:34:39.249Z,51.35
2018-08-09T16:37:06.929Z,51.02
2018-08-09T16:39:34.629Z,50.71
2018-08-09T16:42:02.617Z,51.39
2018-08-09T16:44:30.304Z,51.37
2018-08-09T16:46:58.161Z,51.20
2018-08-09T16:49:25.769Z,51.71
2018-08-09T16:51:53.793Z,51.42
2018-08-09T16:54:21.478Z,50.90
2018-08-09T16:56:49.128Z,52.02
2018-08-09T16:59:16.777Z,51.54
2018-08-09T17:01:44.436Z,51.63
2018-08-09T17:04:12.691Z,52.38
2018-08-09T17:06:40.627Z,51.81
2018-08-09T17:09:11.199Z,52.38
2018-08-09T17:11:44.882Z,51.59
2018-08-09T17:14:14.377Z,52.34
2018-08-09T17:16:42.711Z,51.36
2018-08-09T17:19:10.701Z,50.77
2018-08-09T17:21:39.107Z,51.66
2018-08-09T17:24:08.113Z,51.86
2018-08-09T17:26:36.129Z,51.17
2018-08-09T17:29:04.917Z,51.46
2018-08-09T17:31:32.853Z,50.94
2018-08-09T17:34:00.518Z,51.81
2018-08-09T17:36:28.254Z,51.96
2018-08-09T17:38:56.201Z,51.92
2018-08-09T17:41:23.977Z,52.45
2018-08-09T17:43:51.673Z,52.06
2018-08-09T17:46:19.356Z,54.02
2018-08-09T17:48:48.337Z,54.38
2018-08-09T17:51:16.336Z,56.16
2018-08-09T17:53:45.466Z,56.39
2018-08-09T17:56:13.405Z,57.52
2018-08-09T17:58:41.323Z,57.36
2018-08-09T18:01:09.176Z,57.81
2018-08-09T18:03:38.198Z,57.46
2018-08-09T18:06:06.105Z,57.72
2018-08-09T18:08:33.745Z,58.22
2018-08-09T18:11:02.004Z,58.34
2018-08-09T18:13:29.673Z,58.54
2018-08-09T18:15:57.348Z,58.54
2018-08-09T18:18:25.221Z,57.95
2018-08-09T18:20:52.917Z,57.52
2018-08-09T18:23:20.962Z,58.31
2018-08-09T18:25:48.863Z,57.68
2018-08-09T18:28:16.584Z,57.41
2018-08-09T18:30:44.548Z,57.94
2018-08-09T18:33:12.476Z,58.44
2018-08-09T18:35:40.260Z,58.22
2018-08-09T18:38:09.144Z,59.08
2018-08-09T18:40:36.815Z,58.54
2018-08-09T18:43:04.566Z,58.31
2018-08-09T18:45:32.307Z,59.40
2018-08-09T18:48:00.193Z,59.36
2018-08-09T18:50:29.406Z,59.26
2018-08-09T18:52:57.391Z,58.67
2018-08-09T18:55:25.569Z,58.83
2018-08-09T18:57:53.521Z,59.36
2018-08-09T19:00:23.622Z,59.03
2018-08-09T19:02:51.930Z,58.82
2018-08-09T19:05:19.700Z,59.23
2018-08-09T19:07:47.693Z,60.12
2018-08-09T19:10:18.025Z,59.77
2018-08-09T19:12:45.667Z,59.37
2018-08-09T19:15:13.982Z,59.17
2018-08-09T19:17:42.326Z,59.54
2018-08-09T19:20:30.534Z,59.18
2018-08-09T19:22:58.754Z,59.93
2018-08-09T19:25:26.433Z,59.92
2018-08-09T19:27:54.074Z,59.46
2018-08-09T19:30:23.336Z,59.40
2018-08-09T19:32:51.392Z,58.81
2018-08-09T19:35:19.770Z,59.47
2018-08-09T19:37:47.359Z,59.76
2018-08-09T19:40:16.741Z,59.09
2018-08-09T19:42:44.632Z,59.12
2018-08-09T19:45:13.826Z,58.84
2018-08-09T19:47:41.465Z,59.08
2018-08-09T19:50:11.438Z,59.34
2018-08-09T19:52:39.205Z,59.40
2018-08-09T19:55:08.742Z,59.02
2018-08-09T19:57:36.474Z,59.50
2018-08-09T20:00:06.362Z,58.54
2018-08-09T20:02:34.367Z,58.59
2018-08-09T20:05:02.059Z,59.13
2018-08-09T20:07:29.944Z,58.84
2018-08-09T20:09:57.610Z,59.28
2018-08-09T20:12:25.630Z,58.61
2018-08-09T20:14:53.792Z,58.84
2018-08-09T20:17:21.740Z,58.57
2018-08-09T20:19:49.576Z,59.30
2018-08-09T20:22:18.404Z,58.89
2018-08-09T20:24:46.860Z,58.16
2018-08-09T20:27:15.021Z,58.37
2018-08-09T20:29:42.775Z,58.53
2018-08-09T20:32:10.904Z,58.55
2018-08-09T20:34:38.641Z,58.17
2018-08-09T20:37:06.296Z,58.81
2018-08-09T20:39:34.329Z,58.72
2018-08-09T20:42:02.033Z,59.38
2018-08-09T20:44:29.994Z,58.57
2018-08-09T20:46:57.684Z,58.06
2018-08-09T20:49:25.479Z,58.78
2018-08-09T20:51:53.722Z,58.99
2018-08-09T20:54:21.457Z,58.99
2018-08-09T20:56:49.117Z,58.23
2018-08-09T20:59:16.818Z,58.50
2018-08-09T21:01:45.003Z,59.15
2018-08-09T21:04:13.061Z,59.34
2018-08-09T21:06:40.666Z,59.07
2018-08-09T21:09:10.047Z,58.58
2018-08-09T21:11:37.804Z,58.43
2018-08-09T21:14:05.723Z,59.29
2018-08-09T21:16:33.389Z,58.92
2018-08-09T21:19:01.331Z,58.89
2018-08-09T21:21:29.009Z,59.76
2018-08-09T21:23:58.063Z,59.77
2018-08-09T21:26:25.792Z,59.52
2018-08-09T21:28:53.753Z,58.77
2018-08-09T21:31:21.727Z,59.25
2018-08-09T21:33:49.741Z,58.71
2018-08-09T21:36:17.398Z,59.69
2018-08-09T21:38:45.604Z,59.01
2018-08-09T21:41:13.322Z,59.43
2018-08-09T21:43:41.493Z,59.01
2018-08-09T21:46:09.337Z,59.25
2018-08-09T21:48:37.068Z,59.76
2018-08-09T21:51:04.848Z,59.05
2018-08-09T21:53:32.813Z,58.92
2018-08-09T21:56:00.553Z,59.14
2018-08-09T21:58:28.218Z,59.44
2018-08-09T22:01:01.884Z,58.97
2018-08-09T22:03:31.710Z,59.76
2018-08-09T22:06:05.003Z,59.34
2018-08-09T22:08:38.176Z,58.48
2018-08-09T22:11:12.181Z,59.53
2018-08-09T22:13:45.338Z,58.20
2018-08-09T22:16:18.536Z,58.08
2018-08-09T22:18:51.730Z,58.39
2018-08-09T22:21:25.004Z,58.75
2018-08-09T22:23:52.668Z,58.08
2018-08-09T22:26:20.567Z,58.94
2018-08-09T22:28:48.263Z,58.21
2018-08-09T22:31:16.179Z,58.98
2018-08-09T22:33:43.941Z,59.18
2018-08-09T22:36:11.980Z,58.19
2018-08-09T22:38:39.921Z,59.08
2018-08-09T22:41:07.670Z,58.66
2018-08-09T22:43:35.350Z,58.59
2018-08-09T22:46:03.278Z,58.76
2018-08-09T22:48:30.926Z,58.55
2018-08-09T22:50:58.597Z,58.80
2018-08-09T22:53:26.585Z,58.53
2018-08-09T22:55:54.223Z,58.01
2018-08-09T22:58:21.870Z,57.88
2018-08-09T23:00:49.511Z,58.61
2018-08-09T23:03:17.485Z,58.31
2018-08-09T23:05:45.693Z,58.43
2018-08-09T23:08:14.663Z,57.75
2018-08-09T23:10:43.350Z,57.94
2018-08-09T23:13:12.580Z,58.19
2018-08-09T23:15:41.359Z,57.28
2018-08-09T23:18:09.456Z,56.96
2018-08-09T23:20:37.465Z,57.20
2018-08-09T23:23:05.405Z,57.53
2018-08-09T23:25:33.275Z,56.90
2018-08-09T23:28:00.949Z,57.45
2018-08-09T23:30:28.815Z,56.62
2018-08-09T23:32:56.488Z,57.00
2018-08-09T23:35:24.523Z,56.18
2018-08-09T23:37:52.150Z,56.60
2018-08-09T23:40:19.830Z,56.06
2018-08-09T23:42:47.822Z,54.98
2018-08-09T23:45:15.469Z,54.74
2018-08-09T23:47:43.120Z,55.59
2018-08-09T23:50:12.170Z,54.18
2018-08-09T23:52:40.478Z,54.57
2018-08-09T23:55:10.179Z,54.75
2018-08-09T23:57:38.442Z,53.49
